sensor_id;sensor_type;location;lat;lon;timestamp;P1;durP1;ratioP1;P2;durP2;ratioP2
53875;SDS011;39789;53.216;5.624;2024-01-25T00:01:44;33.10;;;10.63;;
53875;SDS011;39789;53.216;5.624;2024-01-25T00:04:10;40.83;;;10.80;;
53875;SDS011;39789;53.216;5.624;2024-01-25T00:06:36;37.08;;;11.25;;
53875;SDS011;39789;53.216;5.624;2024-01-25T00:09:02;41.10;;;10.63;;
53875;SDS011;39789;53.216;5.624;2024-01-25T00:11:29;35.45;;;11.10;;
53875;SDS011;39789;53.216;5.624;2024-01-25T00:13:56;34.53;;;9.85;;
53875;SDS011;39789;53.216;5.624;2024-01-25T00:16:22;43.75;;;9.98;;
53875;SDS011;39789;53.216;5.624;2024-01-25T00:18:48;42.13;;;10.82;;
53875;SDS011;39789;53.216;5.624;2024-01-25T00:21:14;43.47;;;10.40;;
53875;SDS011;39789;53.216;5.624;2024-01-25T00:23:40;40.95;;;11.52;;
53875;SDS011;39789;53.216;5.624;2024-01-25T00:26:05;41.60;;;11.60;;
53875;SDS011;39789;53.216;5.624;2024-01-25T00:28:31;41.22;;;10.93;;
53875;SDS011;39789;53.216;5.624;2024-01-25T00:30:58;35.05;;;10.77;;
53875;SDS011;39789;53.216;5.624;2024-01-25T00:33:24;49.42;;;12.50;;
53875;SDS011;39789;53.216;5.624;2024-01-25T00:35:50;39.53;;;11.98;;
53875;SDS011;39789;53.216;5.624;2024-01-25T00:38:16;48.20;;;11.98;;
53875;SDS011;39789;53.216;5.624;2024-01-25T00:40:42;51.00;;;11.48;;
53875;SDS011;39789;53.216;5.624;2024-01-25T00:43:08;38.08;;;11.20;;
53875;SDS011;39789;53.216;5.624;2024-01-25T00:45:34;35.78;;;10.00;;
53875;SDS011;39789;53.216;5.624;2024-01-25T00:48:00;39.50;;;10.70;;
53875;SDS011;39789;53.216;5.624;2024-01-25T00:50:26;47.33;;;12.60;;
53875;SDS011;39789;53.216;5.624;2024-01-25T00:52:52;41.47;;;12.88;;
53875;SDS011;39789;53.216;5.624;2024-01-25T00:55:18;37.33;;;11.60;;
53875;SDS011;39789;53.216;5.624;2024-01-25T00:57:44;49.47;;;12.82;;
53875;SDS011;39789;53.216;5.624;2024-01-25T01:00:10;50.97;;;12.85;;
53875;SDS011;39789;53.216;5.624;2024-01-25T01:02:42;37.88;;;11.38;;
53875;SDS011;39789;53.216;5.624;2024-01-25T01:05:08;42.05;;;11.45;;
53875;SDS011;39789;53.216;5.624;2024-01-25T01:07:35;46.70;;;12.85;;
53875;SDS011;39789;53.216;5.624;2024-01-25T01:10:01;38.42;;;11.02;;
53875;SDS011;39789;53.216;5.624;2024-01-25T01:12:26;43.47;;;12.00;;
53875;SDS011;39789;53.216;5.624;2024-01-25T01:14:52;46.05;;;11.93;;
53875;SDS011;39789;53.216;5.624;2024-01-25T01:17:18;48.38;;;12.63;;
53875;SDS011;39789;53.216;5.624;2024-01-25T01:19:44;40.05;;;11.65;;
53875;SDS011;39789;53.216;5.624;2024-01-25T01:22:09;40.08;;;10.82;;
53875;SDS011;39789;53.216;5.624;2024-01-25T01:24:35;39.67;;;11.70;;
53875;SDS011;39789;53.216;5.624;2024-01-25T01:27:01;44.03;;;11.48;;
53875;SDS011;39789;53.216;5.624;2024-01-25T01:29:27;45.55;;;12.57;;
53875;SDS011;39789;53.216;5.624;2024-01-25T01:31:53;46.00;;;11.90;;
53875;SDS011;39789;53.216;5.624;2024-01-25T01:34:18;32.25;;;10.35;;
53875;SDS011;39789;53.216;5.624;2024-01-25T01:36:44;42.17;;;11.82;;
53875;SDS011;39789;53.216;5.624;2024-01-25T01:39:10;46.00;;;11.45;;
53875;SDS011;39789;53.216;5.624;2024-01-25T01:41:36;41.97;;;10.82;;
53875;SDS011;39789;53.216;5.624;2024-01-25T01:44:01;41.03;;;10.40;;
53875;SDS011;39789;53.216;5.624;2024-01-25T01:46:32;34.83;;;10.45;;
53875;SDS011;39789;53.216;5.624;2024-01-25T01:49:00;41.42;;;10.55;;
53875;SDS011;39789;53.216;5.624;2024-01-25T01:51:26;46.80;;;12.52;;
53875;SDS011;39789;53.216;5.624;2024-01-25T01:53:53;41.00;;;12.23;;
53875;SDS011;39789;53.216;5.624;2024-01-25T01:56:20;42.00;;;12.13;;
53875;SDS011;39789;53.216;5.624;2024-01-25T01:58:47;35.08;;;10.95;;
53875;SDS011;39789;53.216;5.624;2024-01-25T02:01:13;40.97;;;12.07;;
53875;SDS011;39789;53.216;5.624;2024-01-25T02:03:39;37.30;;;11.68;;
53875;SDS011;39789;53.216;5.624;2024-01-25T02:06:05;37.30;;;11.43;;
53875;SDS011;39789;53.216;5.624;2024-01-25T02:08:31;49.72;;;11.90;;
53875;SDS011;39789;53.216;5.624;2024-01-25T02:10:58;39.42;;;11.60;;
53875;SDS011;39789;53.216;5.624;2024-01-25T02:13:23;51.60;;;13.00;;
53875;SDS011;39789;53.216;5.624;2024-01-25T02:15:49;39.63;;;12.02;;
53875;SDS011;39789;53.216;5.624;2024-01-25T02:18:15;49.60;;;12.57;;
53875;SDS011;39789;53.216;5.624;2024-01-25T02:20:40;41.33;;;11.40;;
53875;SDS011;39789;53.216;5.624;2024-01-25T02:23:06;50.55;;;12.68;;
53875;SDS011;39789;53.216;5.624;2024-01-25T02:25:32;43.55;;;11.60;;
53875;SDS011;39789;53.216;5.624;2024-01-25T02:27:58;45.30;;;12.95;;
53875;SDS011;39789;53.216;5.624;2024-01-25T02:30:23;51.05;;;12.50;;
53875;SDS011;39789;53.216;5.624;2024-01-25T02:32:49;38.08;;;11.05;;
53875;SDS011;39789;53.216;5.624;2024-01-25T02:35:15;41.97;;;11.77;;
53875;SDS011;39789;53.216;5.624;2024-01-25T02:37:40;49.85;;;12.77;;
53875;SDS011;39789;53.216;5.624;2024-01-25T02:40:07;42.70;;;11.88;;
53875;SDS011;39789;53.216;5.624;2024-01-25T02:42:33;41.00;;;10.93;;
53875;SDS011;39789;53.216;5.624;2024-01-25T02:44:59;45.83;;;11.68;;
53875;SDS011;39789;53.216;5.624;2024-01-25T02:47:24;39.80;;;11.63;;
53875;SDS011;39789;53.216;5.624;2024-01-25T02:49:50;42.38;;;12.18;;
53875;SDS011;39789;53.216;5.624;2024-01-25T02:52:15;53.17;;;12.55;;
53875;SDS011;39789;53.216;5.624;2024-01-25T02:54:41;44.47;;;11.48;;
53875;SDS011;39789;53.216;5.624;2024-01-25T02:57:07;44.42;;;12.10;;
53875;SDS011;39789;53.216;5.624;2024-01-25T02:59:32;45.40;;;11.55;;
53875;SDS011;39789;53.216;5.624;2024-01-25T03:01:58;48.58;;;11.75;;
53875;SDS011;39789;53.216;5.624;2024-01-25T03:04:24;36.60;;;10.85;;
53875;SDS011;39789;53.216;5.624;2024-01-25T03:06:50;38.30;;;11.32;;
53875;SDS011;39789;53.216;5.624;2024-01-25T03:09:16;49.83;;;12.05;;
53875;SDS011;39789;53.216;5.624;2024-01-25T03:11:41;36.75;;;10.43;;
53875;SDS011;39789;53.216;5.624;2024-01-25T03:14:07;34.25;;;10.85;;
53875;SDS011;39789;53.216;5.624;2024-01-25T03:16:34;51.38;;;12.57;;
53875;SDS011;39789;53.216;5.624;2024-01-25T03:18:59;44.20;;;12.80;;
53875;SDS011;39789;53.216;5.624;2024-01-25T03:21:25;37.10;;;11.23;;
53875;SDS011;39789;53.216;5.624;2024-01-25T03:23:54;42.25;;;11.15;;
53875;SDS011;39789;53.216;5.624;2024-01-25T03:26:19;48.08;;;13.43;;
53875;SDS011;39789;53.216;5.624;2024-01-25T03:28:48;41.60;;;11.80;;
53875;SDS011;39789;53.216;5.624;2024-01-25T03:31:15;41.92;;;11.93;;
53875;SDS011;39789;53.216;5.624;2024-01-25T03:33:41;49.42;;;12.98;;
53875;SDS011;39789;53.216;5.624;2024-01-25T03:36:07;37.58;;;11.07;;
53875;SDS011;39789;53.216;5.624;2024-01-25T03:38:32;49.00;;;12.65;;
53875;SDS011;39789;53.216;5.624;2024-01-25T03:41:01;50.17;;;12.93;;
53875;SDS011;39789;53.216;5.624;2024-01-25T03:43:27;50.83;;;12.95;;
53875;SDS011;39789;53.216;5.624;2024-01-25T03:45:53;47.45;;;12.40;;
53875;SDS011;39789;53.216;5.624;2024-01-25T03:48:23;55.92;;;12.95;;
53875;SDS011;39789;53.216;5.624;2024-01-25T03:50:49;47.55;;;12.25;;
53875;SDS011;39789;53.216;5.624;2024-01-25T03:53:15;39.28;;;12.15;;
53875;SDS011;39789;53.216;5.624;2024-01-25T03:55:41;49.42;;;13.77;;
53875;SDS011;39789;53.216;5.624;2024-01-25T03:58:06;53.70;;;11.30;;
53875;SDS011;39789;53.216;5.624;2024-01-25T04:00:33;48.75;;;12.60;;
53875;SDS011;39789;53.216;5.624;2024-01-25T04:02:59;55.00;;;13.15;;
53875;SDS011;39789;53.216;5.624;2024-01-25T04:05:25;49.65;;;13.57;;
53875;SDS011;39789;53.216;5.624;2024-01-25T04:07:51;52.65;;;13.82;;
53875;SDS011;39789;53.216;5.624;2024-01-25T04:10:17;51.83;;;12.23;;
53875;SDS011;39789;53.216;5.624;2024-01-25T04:12:52;46.85;;;13.23;;
53875;SDS011;39789;53.216;5.624;2024-01-25T04:15:19;50.35;;;11.95;;
53875;SDS011;39789;53.216;5.624;2024-01-25T04:17:52;51.45;;;12.95;;
53875;SDS011;39789;53.216;5.624;2024-01-25T04:20:23;59.38;;;14.27;;
53875;SDS011;39789;53.216;5.624;2024-01-25T04:22:52;40.90;;;11.95;;
53875;SDS011;39789;53.216;5.624;2024-01-25T04:25:18;48.53;;;13.27;;
53875;SDS011;39789;53.216;5.624;2024-01-25T04:27:44;39.92;;;11.95;;
53875;SDS011;39789;53.216;5.624;2024-01-25T04:30:09;45.28;;;12.18;;
53875;SDS011;39789;53.216;5.624;2024-01-25T04:32:35;49.05;;;13.35;;
53875;SDS011;39789;53.216;5.624;2024-01-25T04:35:01;46.97;;;12.45;;
53875;SDS011;39789;53.216;5.624;2024-01-25T04:37:26;46.80;;;13.45;;
53875;SDS011;39789;53.216;5.624;2024-01-25T04:39:52;51.28;;;13.32;;
53875;SDS011;39789;53.216;5.624;2024-01-25T04:42:18;53.50;;;13.32;;
53875;SDS011;39789;53.216;5.624;2024-01-25T04:44:43;42.05;;;11.88;;
53875;SDS011;39789;53.216;5.624;2024-01-25T04:47:09;48.50;;;12.27;;
53875;SDS011;39789;53.216;5.624;2024-01-25T04:49:35;44.70;;;12.88;;
53875;SDS011;39789;53.216;5.624;2024-01-25T04:52:01;43.08;;;12.15;;
53875;SDS011;39789;53.216;5.624;2024-01-25T04:54:27;50.50;;;12.05;;
53875;SDS011;39789;53.216;5.624;2024-01-25T04:56:53;39.22;;;12.43;;
53875;SDS011;39789;53.216;5.624;2024-01-25T04:59:19;48.67;;;13.90;;
53875;SDS011;39789;53.216;5.624;2024-01-25T05:01:45;49.28;;;11.75;;
53875;SDS011;39789;53.216;5.624;2024-01-25T05:04:11;43.90;;;12.15;;
53875;SDS011;39789;53.216;5.624;2024-01-25T05:06:36;44.38;;;11.40;;
53875;SDS011;39789;53.216;5.624;2024-01-25T05:09:03;55.40;;;13.68;;
53875;SDS011;39789;53.216;5.624;2024-01-25T05:11:29;42.92;;;12.48;;
53875;SDS011;39789;53.216;5.624;2024-01-25T05:13:55;49.97;;;13.38;;
53875;SDS011;39789;53.216;5.624;2024-01-25T05:16:20;46.67;;;11.55;;
53875;SDS011;39789;53.216;5.624;2024-01-25T05:18:46;47.03;;;12.80;;
53875;SDS011;39789;53.216;5.624;2024-01-25T05:21:12;41.53;;;11.93;;
53875;SDS011;39789;53.216;5.624;2024-01-25T05:23:37;56.95;;;12.02;;
53875;SDS011;39789;53.216;5.624;2024-01-25T05:26:03;51.63;;;13.20;;
53875;SDS011;39789;53.216;5.624;2024-01-25T05:28:29;45.05;;;12.13;;
53875;SDS011;39789;53.216;5.624;2024-01-25T05:30:54;40.22;;;10.98;;
53875;SDS011;39789;53.216;5.624;2024-01-25T05:33:20;44.85;;;13.50;;
53875;SDS011;39789;53.216;5.624;2024-01-25T05:35:46;54.00;;;13.55;;
53875;SDS011;39789;53.216;5.624;2024-01-25T05:38:11;48.78;;;13.02;;
53875;SDS011;39789;53.216;5.624;2024-01-25T05:40:37;53.88;;;13.15;;
53875;SDS011;39789;53.216;5.624;2024-01-25T05:43:03;54.58;;;13.65;;
53875;SDS011;39789;53.216;5.624;2024-01-25T05:45:29;43.60;;;11.55;;
53875;SDS011;39789;53.216;5.624;2024-01-25T05:47:55;48.63;;;12.98;;
53875;SDS011;39789;53.216;5.624;2024-01-25T05:50:27;44.97;;;12.05;;
53875;SDS011;39789;53.216;5.624;2024-01-25T05:52:53;47.72;;;12.20;;
53875;SDS011;39789;53.216;5.624;2024-01-25T05:55:20;61.15;;;13.35;;
53875;SDS011;39789;53.216;5.624;2024-01-25T05:57:46;56.13;;;12.43;;
53875;SDS011;39789;53.216;5.624;2024-01-25T06:00:13;46.42;;;12.43;;
53875;SDS011;39789;53.216;5.624;2024-01-25T06:02:42;45.08;;;12.57;;
53875;SDS011;39789;53.216;5.624;2024-01-25T06:05:08;47.85;;;13.40;;
53875;SDS011;39789;53.216;5.624;2024-01-25T06:07:34;47.75;;;12.70;;
53875;SDS011;39789;53.216;5.624;2024-01-25T06:10:00;61.03;;;13.07;;
53875;SDS011;39789;53.216;5.624;2024-01-25T06:12:28;48.38;;;12.02;;
53875;SDS011;39789;53.216;5.624;2024-01-25T06:14:53;61.50;;;14.40;;
53875;SDS011;39789;53.216;5.624;2024-01-25T06:17:19;56.33;;;13.88;;
53875;SDS011;39789;53.216;5.624;2024-01-25T06:19:45;48.58;;;12.95;;
53875;SDS011;39789;53.216;5.624;2024-01-25T06:22:14;48.38;;;12.57;;
53875;SDS011;39789;53.216;5.624;2024-01-25T06:24:44;52.63;;;12.80;;
53875;SDS011;39789;53.216;5.624;2024-01-25T06:27:14;55.10;;;13.63;;
53875;SDS011;39789;53.216;5.624;2024-01-25T06:30:03;56.00;;;13.50;;
53875;SDS011;39789;53.216;5.624;2024-01-25T06:32:29;66.15;;;14.70;;
53875;SDS011;39789;53.216;5.624;2024-01-25T06:34:57;51.80;;;13.63;;
53875;SDS011;39789;53.216;5.624;2024-01-25T06:37:22;53.63;;;12.55;;
53875;SDS011;39789;53.216;5.624;2024-01-25T06:39:48;42.88;;;13.55;;
53875;SDS011;39789;53.216;5.624;2024-01-25T06:42:14;44.45;;;11.98;;
53875;SDS011;39789;53.216;5.624;2024-01-25T06:44:42;51.55;;;13.63;;
53875;SDS011;39789;53.216;5.624;2024-01-25T06:47:09;48.80;;;12.45;;
53875;SDS011;39789;53.216;5.624;2024-01-25T06:49:35;54.20;;;13.57;;
53875;SDS011;39789;53.216;5.624;2024-01-25T06:52:01;50.38;;;13.60;;
53875;SDS011;39789;53.216;5.624;2024-01-25T06:54:26;42.67;;;12.00;;
53875;SDS011;39789;53.216;5.624;2024-01-25T06:56:52;46.60;;;13.15;;
53875;SDS011;39789;53.216;5.624;2024-01-25T06:59:18;50.05;;;12.70;;
53875;SDS011;39789;53.216;5.624;2024-01-25T07:01:47;54.67;;;13.88;;
53875;SDS011;39789;53.216;5.624;2024-01-25T07:04:15;41.90;;;13.82;;
53875;SDS011;39789;53.216;5.624;2024-01-25T07:06:41;50.13;;;13.25;;
53875;SDS011;39789;53.216;5.624;2024-01-25T07:09:07;49.85;;;14.25;;
53875;SDS011;39789;53.216;5.624;2024-01-25T07:11:32;62.03;;;15.15;;
53875;SDS011;39789;53.216;5.624;2024-01-25T07:14:01;62.67;;;15.82;;
53875;SDS011;39789;53.216;5.624;2024-01-25T07:16:26;62.92;;;14.35;;
53875;SDS011;39789;53.216;5.624;2024-01-25T07:18:52;56.22;;;14.25;;
53875;SDS011;39789;53.216;5.624;2024-01-25T07:21:17;70.35;;;14.60;;
53875;SDS011;39789;53.216;5.624;2024-01-25T07:23:43;67.60;;;14.90;;
53875;SDS011;39789;53.216;5.624;2024-01-25T07:26:27;53.28;;;14.02;;
53875;SDS011;39789;53.216;5.624;2024-01-25T07:28:53;64.05;;;15.88;;
53875;SDS011;39789;53.216;5.624;2024-01-25T07:31:23;57.63;;;13.20;;
53875;SDS011;39789;53.216;5.624;2024-01-25T07:33:50;61.85;;;15.93;;
53875;SDS011;39789;53.216;5.624;2024-01-25T07:36:16;57.22;;;14.02;;
53875;SDS011;39789;53.216;5.624;2024-01-25T07:38:43;60.47;;;13.55;;
53875;SDS011;39789;53.216;5.624;2024-01-25T07:41:09;52.60;;;12.95;;
53875;SDS011;39789;53.216;5.624;2024-01-25T07:43:35;54.88;;;14.15;;
53875;SDS011;39789;53.216;5.624;2024-01-25T07:46:00;62.47;;;14.30;;
53875;SDS011;39789;53.216;5.624;2024-01-25T07:48:26;46.88;;;14.10;;
53875;SDS011;39789;53.216;5.624;2024-01-25T07:50:52;52.53;;;14.55;;
53875;SDS011;39789;53.216;5.624;2024-01-25T07:53:17;60.35;;;15.60;;
53875;SDS011;39789;53.216;5.624;2024-01-25T07:55:43;62.10;;;15.35;;
53875;SDS011;39789;53.216;5.624;2024-01-25T07:58:10;56.20;;;14.63;;
53875;SDS011;39789;53.216;5.624;2024-01-25T08:00:36;67.00;;;13.65;;
53875;SDS011;39789;53.216;5.624;2024-01-25T08:03:02;56.90;;;13.07;;
53875;SDS011;39789;53.216;5.624;2024-01-25T08:05:28;55.40;;;13.93;;
53875;SDS011;39789;53.216;5.624;2024-01-25T08:07:54;44.35;;;13.35;;
53875;SDS011;39789;53.216;5.624;2024-01-25T08:10:19;49.85;;;12.30;;
53875;SDS011;39789;53.216;5.624;2024-01-25T08:12:45;48.47;;;14.32;;
53875;SDS011;39789;53.216;5.624;2024-01-25T08:15:12;51.63;;;12.93;;
53875;SDS011;39789;53.216;5.624;2024-01-25T08:17:38;53.60;;;14.40;;
53875;SDS011;39789;53.216;5.624;2024-01-25T08:20:04;48.05;;;12.82;;
53875;SDS011;39789;53.216;5.624;2024-01-25T08:22:34;55.03;;;13.32;;
53875;SDS011;39789;53.216;5.624;2024-01-25T08:25:00;52.72;;;14.05;;
53875;SDS011;39789;53.216;5.624;2024-01-25T08:27:25;53.38;;;13.15;;
53875;SDS011;39789;53.216;5.624;2024-01-25T08:29:51;48.13;;;13.30;;
53875;SDS011;39789;53.216;5.624;2024-01-25T08:32:17;58.50;;;12.85;;
53875;SDS011;39789;53.216;5.624;2024-01-25T08:34:45;49.67;;;12.60;;
53875;SDS011;39789;53.216;5.624;2024-01-25T08:37:10;51.20;;;13.57;;
53875;SDS011;39789;53.216;5.624;2024-01-25T08:39:36;51.55;;;12.45;;
53875;SDS011;39789;53.216;5.624;2024-01-25T08:42:02;43.28;;;11.25;;
53875;SDS011;39789;53.216;5.624;2024-01-25T08:44:31;50.13;;;13.23;;
53875;SDS011;39789;53.216;5.624;2024-01-25T08:46:56;52.72;;;12.95;;
53875;SDS011;39789;53.216;5.624;2024-01-25T08:49:22;58.58;;;12.43;;
53875;SDS011;39789;53.216;5.624;2024-01-25T08:51:47;45.85;;;12.80;;
53875;SDS011;39789;53.216;5.624;2024-01-25T08:54:13;59.45;;;14.13;;
53875;SDS011;39789;53.216;5.624;2024-01-25T08:56:39;57.63;;;13.82;;
53875;SDS011;39789;53.216;5.624;2024-01-25T08:59:05;49.40;;;13.18;;
53875;SDS011;39789;53.216;5.624;2024-01-25T09:01:30;46.88;;;12.55;;
53875;SDS011;39789;53.216;5.624;2024-01-25T09:03:56;55.67;;;14.10;;
53875;SDS011;39789;53.216;5.624;2024-01-25T09:06:27;51.03;;;12.13;;
53875;SDS011;39789;53.216;5.624;2024-01-25T09:08:53;40.88;;;12.02;;
53875;SDS011;39789;53.216;5.624;2024-01-25T09:11:19;48.97;;;13.63;;
53875;SDS011;39789;53.216;5.624;2024-01-25T09:13:47;48.60;;;13.13;;
53875;SDS011;39789;53.216;5.624;2024-01-25T09:16:13;44.00;;;13.10;;
53875;SDS011;39789;53.216;5.624;2024-01-25T09:18:40;46.45;;;12.45;;
53875;SDS011;39789;53.216;5.624;2024-01-25T09:21:06;47.97;;;12.70;;
53875;SDS011;39789;53.216;5.624;2024-01-25T09:23:32;38.35;;;11.60;;
53875;SDS011;39789;53.216;5.624;2024-01-25T09:25:57;44.03;;;13.23;;
53875;SDS011;39789;53.216;5.624;2024-01-25T09:28:23;47.42;;;13.75;;
53875;SDS011;39789;53.216;5.624;2024-01-25T09:30:48;52.10;;;13.40;;
53875;SDS011;39789;53.216;5.624;2024-01-25T09:33:14;45.13;;;13.23;;
53875;SDS011;39789;53.216;5.624;2024-01-25T09:35:40;47.55;;;13.25;;
53875;SDS011;39789;53.216;5.624;2024-01-25T09:38:06;42.20;;;12.30;;
53875;SDS011;39789;53.216;5.624;2024-01-25T09:40:32;42.45;;;12.48;;
53875;SDS011;39789;53.216;5.624;2024-01-25T09:42:58;47.65;;;12.02;;
53875;SDS011;39789;53.216;5.624;2024-01-25T09:45:24;41.35;;;11.73;;
53875;SDS011;39789;53.216;5.624;2024-01-25T09:47:50;46.38;;;12.45;;
53875;SDS011;39789;53.216;5.624;2024-01-25T09:50:16;41.78;;;12.30;;
53875;SDS011;39789;53.216;5.624;2024-01-25T09:52:45;50.55;;;14.00;;
53875;SDS011;39789;53.216;5.624;2024-01-25T09:55:19;47.17;;;12.45;;
53875;SDS011;39789;53.216;5.624;2024-01-25T09:57:49;49.50;;;14.05;;
53875;SDS011;39789;53.216;5.624;2024-01-25T10:00:20;48.33;;;12.82;;
53875;SDS011;39789;53.216;5.624;2024-01-25T10:02:49;48.17;;;12.43;;
53875;SDS011;39789;53.216;5.624;2024-01-25T10:05:18;39.97;;;11.32;;
53875;SDS011;39789;53.216;5.624;2024-01-25T10:07:47;48.63;;;12.80;;
53875;SDS011;39789;53.216;5.624;2024-01-25T10:10:12;53.25;;;12.93;;
53875;SDS011;39789;53.216;5.624;2024-01-25T10:12:40;45.38;;;13.27;;
53875;SDS011;39789;53.216;5.624;2024-01-25T10:15:07;48.92;;;13.55;;
53875;SDS011;39789;53.216;5.624;2024-01-25T10:17:34;50.20;;;13.20;;
53875;SDS011;39789;53.216;5.624;2024-01-25T10:20:00;49.28;;;14.25;;
53875;SDS011;39789;53.216;5.624;2024-01-25T10:22:25;48.53;;;13.13;;
53875;SDS011;39789;53.216;5.624;2024-01-25T10:24:52;49.53;;;12.55;;
53875;SDS011;39789;53.216;5.624;2024-01-25T10:27:21;42.85;;;11.57;;
53875;SDS011;39789;53.216;5.624;2024-01-25T10:29:48;45.60;;;11.95;;
53875;SDS011;39789;53.216;5.624;2024-01-25T10:32:14;44.40;;;12.90;;
53875;SDS011;39789;53.216;5.624;2024-01-25T10:34:40;54.88;;;13.07;;
53875;SDS011;39789;53.216;5.624;2024-01-25T10:37:08;42.60;;;12.40;;
53875;SDS011;39789;53.216;5.624;2024-01-25T10:39:33;45.70;;;12.90;;
53875;SDS011;39789;53.216;5.624;2024-01-25T10:41:59;41.58;;;10.75;;
53875;SDS011;39789;53.216;5.624;2024-01-25T10:44:25;42.85;;;11.90;;
53875;SDS011;39789;53.216;5.624;2024-01-25T10:46:51;49.17;;;12.13;;
53875;SDS011;39789;53.216;5.624;2024-01-25T10:49:19;35.05;;;11.45;;
53875;SDS011;39789;53.216;5.624;2024-01-25T10:51:45;41.33;;;11.35;;
53875;SDS011;39789;53.216;5.624;2024-01-25T10:54:12;43.85;;;11.45;;
53875;SDS011;39789;53.216;5.624;2024-01-25T10:56:42;40.22;;;11.55;;
53875;SDS011;39789;53.216;5.624;2024-01-25T10:59:10;43.17;;;11.27;;
53875;SDS011;39789;53.216;5.624;2024-01-25T11:01:36;42.63;;;10.60;;
53875;SDS011;39789;53.216;5.624;2024-01-25T11:04:01;33.20;;;9.40;;
53875;SDS011;39789;53.216;5.624;2024-01-25T11:06:27;40.95;;;10.68;;
53875;SDS011;39789;53.216;5.624;2024-01-25T11:09:06;30.55;;;10.05;;
53875;SDS011;39789;53.216;5.624;2024-01-25T11:11:35;39.53;;;10.63;;
53875;SDS011;39789;53.216;5.624;2024-01-25T11:14:01;31.63;;;9.98;;
53875;SDS011;39789;53.216;5.624;2024-01-25T11:16:30;37.63;;;11.60;;
53875;SDS011;39789;53.216;5.624;2024-01-25T11:18:58;39.45;;;10.38;;
53875;SDS011;39789;53.216;5.624;2024-01-25T11:21:49;36.45;;;11.57;;
53875;SDS011;39789;53.216;5.624;2024-01-25T11:24:21;34.03;;;10.38;;
53875;SDS011;39789;53.216;5.624;2024-01-25T11:26:48;29.58;;;9.38;;
53875;SDS011;39789;53.216;5.624;2024-01-25T11:29:15;32.50;;;10.63;;
53875;SDS011;39789;53.216;5.624;2024-01-25T11:31:46;32.45;;;9.85;;
53875;SDS011;39789;53.216;5.624;2024-01-25T11:34:13;27.85;;;9.43;;
53875;SDS011;39789;53.216;5.624;2024-01-25T11:36:40;38.05;;;10.00;;
53875;SDS011;39789;53.216;5.624;2024-01-25T11:39:13;41.28;;;11.10;;
53875;SDS011;39789;53.216;5.624;2024-01-25T11:41:44;36.38;;;9.95;;
53875;SDS011;39789;53.216;5.624;2024-01-25T11:44:12;30.83;;;9.90;;
53875;SDS011;39789;53.216;5.624;2024-01-25T11:46:43;36.05;;;11.32;;
53875;SDS011;39789;53.216;5.624;2024-01-25T11:49:12;34.75;;;10.77;;
53875;SDS011;39789;53.216;5.624;2024-01-25T11:51:38;33.17;;;10.27;;
53875;SDS011;39789;53.216;5.624;2024-01-25T11:54:03;29.45;;;11.30;;
53875;SDS011;39789;53.216;5.624;2024-01-25T11:56:32;30.40;;;10.18;;
53875;SDS011;39789;53.216;5.624;2024-01-25T11:59:00;28.77;;;10.15;;
53875;SDS011;39789;53.216;5.624;2024-01-25T12:01:27;35.28;;;10.35;;
53875;SDS011;39789;53.216;5.624;2024-01-25T12:03:55;36.03;;;11.43;;
53875;SDS011;39789;53.216;5.624;2024-01-25T12:06:21;34.90;;;10.40;;
53875;SDS011;39789;53.216;5.624;2024-01-25T12:08:47;39.13;;;10.80;;
53875;SDS011;39789;53.216;5.624;2024-01-25T12:11:16;38.85;;;11.32;;
53875;SDS011;39789;53.216;5.624;2024-01-25T12:13:44;31.80;;;9.77;;
53875;SDS011;39789;53.216;5.624;2024-01-25T12:16:10;31.65;;;10.40;;
53875;SDS011;39789;53.216;5.624;2024-01-25T12:18:37;32.88;;;11.07;;
53875;SDS011;39789;53.216;5.624;2024-01-25T12:21:04;39.72;;;9.63;;
53875;SDS011;39789;53.216;5.624;2024-01-25T12:23:34;36.00;;;10.93;;
53875;SDS011;39789;53.216;5.624;2024-01-25T12:26:07;34.53;;;10.38;;
53875;SDS011;39789;53.216;5.624;2024-01-25T12:28:35;31.65;;;10.32;;
53875;SDS011;39789;53.216;5.624;2024-01-25T12:31:04;39.85;;;11.07;;
53875;SDS011;39789;53.216;5.624;2024-01-25T12:33:33;30.52;;;10.85;;
53875;SDS011;39789;53.216;5.624;2024-01-25T12:35:59;38.90;;;10.55;;
53875;SDS011;39789;53.216;5.624;2024-01-25T12:38:27;40.40;;;11.05;;
53875;SDS011;39789;53.216;5.624;2024-01-25T12:40:54;33.40;;;11.27;;
53875;SDS011;39789;53.216;5.624;2024-01-25T12:43:20;28.38;;;9.95;;
53875;SDS011;39789;53.216;5.624;2024-01-25T12:45:48;26.90;;;10.48;;
53875;SDS011;39789;53.216;5.624;2024-01-25T12:48:14;34.85;;;10.95;;
53875;SDS011;39789;53.216;5.624;2024-01-25T12:50:41;29.80;;;9.55;;
53875;SDS011;39789;53.216;5.624;2024-01-25T12:53:06;32.25;;;11.27;;
53875;SDS011;39789;53.216;5.624;2024-01-25T12:55:34;37.22;;;10.88;;
53875;SDS011;39789;53.216;5.624;2024-01-25T12:58:00;32.92;;;11.45;;
53875;SDS011;39789;53.216;5.624;2024-01-25T13:00:26;35.38;;;10.07;;
53875;SDS011;39789;53.216;5.624;2024-01-25T13:02:52;36.72;;;11.48;;
53875;SDS011;39789;53.216;5.624;2024-01-25T13:05:19;32.78;;;11.43;;
53875;SDS011;39789;53.216;5.624;2024-01-25T13:07:45;38.55;;;11.40;;
53875;SDS011;39789;53.216;5.624;2024-01-25T13:10:11;48.05;;;12.32;;
53875;SDS011;39789;53.216;5.624;2024-01-25T13:12:38;30.38;;;11.07;;
53875;SDS011;39789;53.216;5.624;2024-01-25T13:15:04;35.15;;;11.93;;
53875;SDS011;39789;53.216;5.624;2024-01-25T13:17:34;35.17;;;11.05;;
53875;SDS011;39789;53.216;5.624;2024-01-25T13:20:01;34.28;;;10.30;;
53875;SDS011;39789;53.216;5.624;2024-01-25T13:22:28;32.83;;;11.45;;
53875;SDS011;39789;53.216;5.624;2024-01-25T13:24:55;33.08;;;11.07;;
53875;SDS011;39789;53.216;5.624;2024-01-25T13:27:21;37.78;;;12.07;;
53875;SDS011;39789;53.216;5.624;2024-01-25T13:29:50;36.53;;;11.75;;
53875;SDS011;39789;53.216;5.624;2024-01-25T13:32:15;36.28;;;11.75;;
53875;SDS011;39789;53.216;5.624;2024-01-25T13:34:41;43.78;;;11.52;;
53875;SDS011;39789;53.216;5.624;2024-01-25T13:37:06;39.25;;;11.25;;
53875;SDS011;39789;53.216;5.624;2024-01-25T13:39:32;35.28;;;11.48;;
53875;SDS011;39789;53.216;5.624;2024-01-25T13:41:58;25.95;;;10.10;;
53875;SDS011;39789;53.216;5.624;2024-01-25T13:44:24;37.15;;;10.82;;
53875;SDS011;39789;53.216;5.624;2024-01-25T13:46:49;36.63;;;10.85;;
53875;SDS011;39789;53.216;5.624;2024-01-25T13:49:15;36.65;;;10.65;;
53875;SDS011;39789;53.216;5.624;2024-01-25T13:51:41;30.85;;;10.07;;
53875;SDS011;39789;53.216;5.624;2024-01-25T13:54:08;41.25;;;11.23;;
53875;SDS011;39789;53.216;5.624;2024-01-25T13:56:34;30.10;;;9.73;;
53875;SDS011;39789;53.216;5.624;2024-01-25T13:59:00;33.80;;;10.65;;
53875;SDS011;39789;53.216;5.624;2024-01-25T14:01:25;33.60;;;10.50;;
53875;SDS011;39789;53.216;5.624;2024-01-25T14:03:51;37.97;;;11.73;;
53875;SDS011;39789;53.216;5.624;2024-01-25T14:06:16;38.35;;;11.43;;
53875;SDS011;39789;53.216;5.624;2024-01-25T14:08:46;35.30;;;12.18;;
53875;SDS011;39789;53.216;5.624;2024-01-25T14:11:12;32.22;;;11.07;;
53875;SDS011;39789;53.216;5.624;2024-01-25T14:13:38;36.38;;;11.30;;
53875;SDS011;39789;53.216;5.624;2024-01-25T14:16:03;39.72;;;11.18;;
53875;SDS011;39789;53.216;5.624;2024-01-25T14:18:35;31.52;;;10.73;;